Time;durP1;ratioP1;P1;durP2;ratioP2;P2;SDS_P1;SDS_P2;PMS_P1;PMS_P2;Temp;Humidity;BMP_temperature;BMP_pressure;BME280_temperature;BME280_humidity;BME280_pressure;Samples;Min_cycle;Max_cycle;Signal;HPM_P1;HPM_P2
2022/09/17 00:00:14;;;;;;;7.27;5.90;;;17.60;99.90;;;;;;5018113;28;20440;-92
2022/09/17 00:02:45;;;;;;;8.73;5.67;;;17.60;99.90;;;;;;5002249;28;20195;-90
2022/09/17 00:05:11;;;;;;;6.03;4.80;;;17.60;99.90;;;;;;5001858;28;20433;-93
2022/09/17 00:07:37;;;;;;;11.87;6.10;;;17.50;99.90;;;;;;5019354;28;20483;-92
2022/09/17 00:10:03;;;;;;;9.40;6.20;;;17.50;99.90;;;;;;5018876;28;20434;-92
2022/09/17 00:12:30;;;;;;;9.70;5.70;;;17.50;99.90;;;;;;5001742;28;20215;-93
2022/09/17 00:14:56;;;;;;;11.10;5.93;;;17.40;99.90;;;;;;5001930;28;20438;-92
2022/09/17 00:17:22;;;;;;;9.40;5.77;;;17.50;99.90;;;;;;5001323;28;20439;-91
2022/09/17 00:19:48;;;;;;;6.40;5.50;;;17.40;99.90;;;;;;5000342;28;20433;-91
2022/09/17 00:22:14;;;;;;;7.97;5.60;;;17.40;99.90;;;;;;5001780;28;20195;-92
2022/09/17 00:24:40;;;;;;;7.33;5.50;;;17.40;99.90;;;;;;5001835;28;20527;-92
2022/09/17 00:27:06;;;;;;;8.23;5.50;;;17.40;99.90;;;;;;4999145;28;20468;-92
2022/09/17 00:29:32;;;;;;;7.50;5.70;;;17.30;99.90;;;;;;5000023;28;20191;-92
2022/09/17 00:31:57;;;;;;;7.60;5.20;;;17.30;99.90;;;;;;5016429;28;20215;-93
2022/09/17 00:34:23;;;;;;;7.40;5.90;;;17.30;99.90;;;;;;5016467;28;20195;-92
2022/09/17 00:36:48;;;;;;;7.00;6.30;;;17.20;99.90;;;;;;4999677;28;20186;-92
2022/09/17 00:39:15;;;;;;;7.50;5.70;;;17.20;99.90;;;;;;5001616;28;20318;-92
2022/09/17 00:41:41;;;;;;;8.70;5.40;;;17.20;99.90;;;;;;5001785;28;20297;-93
2022/09/17 00:44:35;;;;;;;7.40;5.67;;;17.10;99.90;;;;;;4999264;28;20432;-91
2022/09/17 00:47:01;;;;;;;8.10;5.83;;;17.10;99.90;;;;;;4998779;28;20440;-92
2022/09/17 00:49:29;;;;;;;8.33;5.80;;;17.00;99.90;;;;;;5001338;28;20519;-92
2022/09/17 00:52:03;;;;;;;8.00;6.10;;;17.00;99.90;;;;;;5018717;28;20468;-92
2022/09/17 00:54:29;;;;;;;6.50;5.57;;;16.90;99.90;;;;;;5006131;28;20432;-93
2022/09/17 00:56:57;;;;;;;8.50;6.23;;;16.90;99.90;;;;;;5001393;28;20425;-92
2022/09/17 00:59:23;;;;;;;8.57;5.80;;;16.90;99.90;;;;;;4999192;28;20444;-92
2022/09/17 01:01:49;;;;;;;8.10;5.80;;;16.80;99.90;;;;;;4999121;28;20459;-91
2022/09/17 01:04:17;;;;;;;8.67;6.57;;;16.80;99.90;;;;;;4999949;28;21026;-91
2022/09/17 01:06:52;;;;;;;11.60;6.30;;;16.70;99.90;;;;;;5001530;28;20918;-92
2022/09/17 01:09:49;;;;;;;11.20;6.90;;;16.70;99.90;;;;;;5008994;28;20444;-92
2022/09/17 01:12:20;;;;;;;6.60;5.30;;;16.70;99.90;;;;;;4998952;28;20563;-92
2022/09/17 01:15:08;;;;;;;10.50;6.30;;;16.60;99.90;;;;;;5016633;28;20486;-90
2022/09/17 01:18:02;;;;;;;10.07;6.47;;;16.60;99.90;;;;;;4999581;28;20441;-92
2022/09/17 01:20:53;;;;;;;7.10;5.70;;;16.60;99.90;;;;;;4999522;28;20961;-93
2022/09/17 01:23:37;;;;;;;9.10;6.00;;;16.60;99.90;;;;;;4998720;28;20467;-91
2022/09/17 01:26:12;;;;;;;7.73;6.77;;;16.50;99.90;;;;;;5016091;28;20506;-92
2022/09/17 01:28:51;;;;;;;11.03;6.73;;;16.50;99.90;;;;;;4999429;28;20411;-91
2022/09/17 01:31:38;;;;;;;9.13;6.17;;;16.50;99.90;;;;;;5017977;28;20503;-93
2022/09/17 01:34:26;;;;;;;8.40;5.87;;;16.50;99.90;;;;;;5015895;28;20441;-92
2022/09/17 01:36:54;;;;;;;6.77;6.00;;;16.50;99.90;;;;;;4998966;28;20459;-92
2022/09/17 01:39:51;;;;;;;7.77;6.40;;;16.50;99.90;;;;;;5015784;28;20467;-92
2022/09/17 01:42:17;;;;;;;7.70;6.90;;;16.50;99.90;;;;;;4999043;28;20460;-93
2022/09/17 01:45:10;;;;;;;12.10;7.10;;;16.50;99.90;;;;;;5002270;28;20507;-92
2022/09/17 01:47:42;;;;;;;8.50;6.23;;;16.40;99.90;;;;;;5032121;28;20428;-91
2022/09/17 01:50:12;;;;;;;10.23;6.63;;;16.40;99.90;;;;;;5011029;28;20447;-92
2022/09/17 01:52:42;;;;;;;8.27;6.57;;;16.40;99.90;;;;;;4997874;28;20484;-91
2022/09/17 01:55:12;;;;;;;10.97;7.20;;;16.40;99.90;;;;;;4997575;28;20448;-92
2022/09/17 01:57:46;;;;;;;8.50;5.80;;;16.40;99.90;;;;;;5016078;28;20425;-90
2022/09/17 02:00:15;;;;;;;10.40;7.07;;;16.40;99.90;;;;;;4998302;28;20432;-92
2022/09/17 02:03:01;;;;;;;8.50;6.57;;;16.40;99.90;;;;;;5016261;28;20509;-92
2022/09/17 02:05:42;;;;;;;10.27;7.10;;;16.40;99.90;;;;;;4997816;28;20462;-92
2022/09/17 02:08:15;;;;;;;7.80;6.77;;;16.40;99.90;;;;;;4997711;28;20427;-93
2022/09/17 02:11:08;;;;;;;10.90;7.00;;;16.40;99.90;;;;;;4998476;28;20445;-93
2022/09/17 02:13:42;;;;;;;8.83;6.63;;;16.40;99.90;;;;;;4994883;28;20555;-91
2022/09/17 02:16:21;;;;;;;9.10;6.50;;;16.40;99.90;;;;;;4997935;28;20441;-93
2022/09/17 02:19:11;;;;;;;8.07;6.10;;;16.40;99.90;;;;;;4998591;28;20424;-94
2022/09/17 02:21:51;;;;;;;8.10;6.40;;;16.30;99.90;;;;;;5005015;28;20460;-92
2022/09/17 02:24:26;;;;;;;8.47;6.23;;;16.40;99.90;;;;;;5032107;28;20467;-92
2022/09/17 02:27:10;;;;;;;8.40;6.97;;;16.30;99.90;;;;;;5017102;28;20424;-93
2022/09/17 02:29:40;;;;;;;7.70;5.23;;;16.30;99.90;;;;;;4998420;28;20445;-93
2022/09/17 02:32:07;;;;;;;8.93;6.50;;;16.30;99.90;;;;;;5016066;28;20487;-92
2022/09/17 02:34:33;;;;;;;9.77;6.30;;;16.30;99.90;;;;;;5015375;28;20470;-92
2022/09/17 02:37:00;;;;;;;7.57;6.30;;;16.30;99.90;;;;;;4998437;28;20933;-92
2022/09/17 02:39:28;;;;;;;11.47;5.97;;;16.40;99.90;;;;;;4997932;28;20508;-93
2022/09/17 02:42:16;;;;;;;8.70;6.07;;;16.40;99.90;;;;;;4999271;28;20448;-91
2022/09/17 02:45:11;;;;;;;8.43;5.53;;;16.40;99.90;;;;;;5017257;28;20570;-91
2022/09/17 02:47:58;;;;;;;8.63;6.27;;;16.40;99.90;;;;;;4999095;28;20445;-92
2022/09/17 02:51:09;;;;;;;7.93;6.23;;;16.40;99.90;;;;;;5015914;28;20428;-91
2022/09/17 02:54:04;;;;;;;8.57;6.60;;;16.40;99.90;;;;;;4998229;28;20468;-92
2022/09/17 02:56:36;;;;;;;7.67;6.23;;;16.40;99.90;;;;;;4998635;28;20441;-91
2022/09/17 02:59:20;;;;;;;9.10;6.37;;;16.40;99.90;;;;;;4998654;28;20927;-92
2022/09/17 03:02:00;;;;;;;9.37;6.63;;;16.40;99.90;;;;;;4998943;28;20763;-93
2022/09/17 03:04:28;;;;;;;8.00;5.97;;;16.50;99.90;;;;;;5023326;28;20396;-92
2022/09/17 03:06:54;;;;;;;11.30;6.50;;;16.50;99.90;;;;;;5000491;28;20440;-92
2022/09/17 03:09:20;;;;;;;7.13;6.23;;;16.50;99.90;;;;;;4996794;28;20437;-91
2022/09/17 03:11:46;;;;;;;7.50;6.20;;;16.50;99.90;;;;;;5000517;28;20460;-91
2022/09/17 03:14:12;;;;;;;8.93;6.47;;;16.50;99.90;;;;;;5000511;28;20202;-93
2022/09/17 03:16:38;;;;;;;10.30;7.33;;;16.50;99.90;;;;;;5000777;28;20436;-89
2022/09/17 03:19:03;;;;;;;8.87;7.53;;;16.40;99.90;;;;;;5000779;28;20179;-92
2022/09/17 03:21:30;;;;;;;11.20;6.97;;;16.40;99.90;;;;;;5018667;28;20219;-92
2022/09/17 03:23:55;;;;;;;7.60;6.53;;;16.40;99.90;;;;;;5000742;28;20182;-92
2022/09/17 03:26:21;;;;;;;7.77;5.47;;;16.50;99.90;;;;;;5000221;28;20425;-92
2022/09/17 03:28:47;;;;;;;8.50;6.50;;;16.50;99.90;;;;;;5000294;28;20190;-92
2022/09/17 03:31:13;;;;;;;8.13;6.97;;;16.50;99.90;;;;;;5017874;28;20187;-92
2022/09/17 03:33:38;;;;;;;8.73;6.83;;;16.50;99.90;;;;;;5000591;28;20210;-91
2022/09/17 03:36:04;;;;;;;11.80;7.00;;;16.60;99.90;;;;;;5018566;28;20234;-91
2022/09/17 03:38:30;;;;;;;10.13;7.40;;;16.60;99.90;;;;;;5018359;28;20242;-93
2022/09/17 03:41:00;;;;;;;8.17;6.50;;;16.60;99.90;;;;;;5000340;28;20199;-92
2022/09/17 03:43:27;;;;;;;8.27;6.77;;;16.60;99.90;;;;;;5001741;28;20407;-93
2022/09/17 03:45:52;;;;;;;8.13;6.90;;;16.70;99.90;;;;;;5018749;28;20464;-92
2022/09/17 03:48:18;;;;;;;8.23;7.37;;;16.60;99.90;;;;;;5018222;28;20457;-91
2022/09/17 03:50:43;;;;;;;11.60;8.07;;;16.70;99.90;;;;;;5001133;28;20262;-93
2022/09/17 03:53:10;;;;;;;11.60;7.03;;;16.70;99.90;;;;;;5006324;28;20221;-91
2022/09/17 03:55:37;;;;;;;8.30;6.40;;;16.70;99.90;;;;;;4999717;28;20213;-92
2022/09/17 03:58:03;;;;;;;8.07;6.80;;;16.70;99.90;;;;;;5001802;28;20409;-92
2022/09/17 04:00:29;;;;;;;9.93;6.73;;;16.70;99.90;;;;;;5008711;28;20443;-92
2022/09/17 04:02:54;;;;;;;9.00;6.63;;;16.70;99.90;;;;;;5001780;28;20625;-91
2022/09/17 04:05:20;;;;;;;8.27;6.87;;;16.70;99.90;;;;;;5004434;28;20209;-93
2022/09/17 04:07:46;;;;;;;8.73;7.80;;;16.70;99.90;;;;;;5022383;28;20190;-92
2022/09/17 04:10:11;;;;;;;10.00;7.73;;;16.70;99.90;;;;;;5002467;28;20245;-92
2022/09/17 04:12:38;;;;;;;8.93;7.23;;;16.80;99.90;;;;;;5000270;28;20265;-93
2022/09/17 04:15:04;;;;;;;9.13;7.33;;;16.70;99.90;;;;;;5000008;28;20282;-91
2022/09/17 04:17:30;;;;;;;7.83;6.90;;;16.80;99.90;;;;;;5025155;28;20420;-93
2022/09/17 04:19:57;;;;;;;10.90;8.43;;;16.80;99.90;;;;;;5009962;28;20451;-92
2022/09/17 04:22:23;;;;;;;9.00;6.57;;;16.70;99.90;;;;;;4999941;28;20432;-92
2022/09/17 04:24:48;;;;;;;9.33;7.53;;;16.80;99.90;;;;;;4999544;28;20575;-93
2022/09/17 04:27:14;;;;;;;10.03;7.93;;;16.80;99.90;;;;;;5017131;28;20919;-91
2022/09/17 04:29:39;;;;;;;9.37;7.77;;;16.80;99.90;;;;;;4999689;28;20271;-92
2022/09/17 04:32:05;;;;;;;9.23;7.83;;;16.80;99.90;;;;;;4999592;28;20230;-91
2022/09/17 04:34:31;;;;;;;11.50;9.03;;;16.80;99.90;;;;;;5000549;28;20199;-91
2022/09/17 04:36:57;;;;;;;10.07;8.57;;;16.70;99.90;;;;;;5017835;28;20846;-93
2022/09/17 04:39:23;;;;;;;9.60;8.60;;;16.70;99.90;;;;;;5017697;28;20558;-93
2022/09/17 04:41:49;;;;;;;10.50;8.70;;;16.80;99.90;;;;;;4999765;28;20959;-91
2022/09/17 04:44:15;;;;;;;10.43;7.60;;;16.70;99.90;;;;;;5017486;28;20206;-92
2022/09/17 04:46:40;;;;;;;10.10;8.07;;;16.70;99.90;;;;;;5021500;28;20174;-91
2022/09/17 04:49:07;;;;;;;10.33;8.00;;;16.70;99.90;;;;;;4998503;28;20687;-92
2022/09/17 04:51:33;;;;;;;10.00;7.80;;;16.80;99.90;;;;;;4998668;28;20263;-92
2022/09/17 04:53:58;;;;;;;9.70;8.10;;;16.70;99.90;;;;;;4998698;28;20499;-92
2022/09/17 04:56:24;;;;;;;11.90;8.63;;;16.70;99.90;;;;;;5015997;28;20262;-92
2022/09/17 04:58:50;;;;;;;10.80;8.70;;;16.70;99.90;;;;;;4998295;28;20186;-91
2022/09/17 05:01:17;;;;;;;9.87;7.93;;;16.70;99.90;;;;;;5016044;28;20507;-92
2022/09/17 05:03:43;;;;;;;10.33;8.33;;;16.70;99.90;;;;;;4998392;28;20179;-92
2022/09/17 05:06:09;;;;;;;10.53;8.17;;;16.70;99.90;;;;;;4999018;28;20934;-91
2022/09/17 05:08:35;;;;;;;11.10;8.90;;;16.70;99.90;;;;;;4998742;28;20428;-91
2022/09/17 05:11:01;;;;;;;10.13;7.87;;;16.70;99.90;;;;;;4998742;28;20660;-91
2022/09/17 05:13:26;;;;;;;10.60;8.47;;;16.70;99.90;;;;;;4998731;28;20207;-93
2022/09/17 05:15:55;;;;;;;11.40;9.03;;;16.70;99.90;;;;;;5016470;28;20793;-93
2022/09/17 05:18:21;;;;;;;9.87;8.30;;;16.70;99.90;;;;;;4999300;28;20187;-92
2022/09/17 05:20:47;;;;;;;12.60;9.20;;;16.70;99.90;;;;;;5016133;28;20941;-92
2022/09/17 05:23:13;;;;;;;12.10;9.40;;;16.60;99.90;;;;;;5015814;28;20416;-92
2022/09/17 05:25:38;;;;;;;11.87;9.13;;;16.60;99.90;;;;;;4998806;28;20206;-92
2022/09/17 05:28:04;;;;;;;11.53;9.37;;;16.60;99.90;;;;;;5016315;28;20425;-90
2022/09/17 05:30:30;;;;;;;14.30;9.73;;;16.50;99.90;;;;;;5007904;28;20195;-91
2022/09/17 05:33:06;;;;;;;15.40;10.40;;;16.50;99.90;;;;;;5020653;28;20237;-91
2022/09/17 05:35:32;;;;;;;15.60;10.50;;;16.50;99.90;;;;;;4997674;28;20202;-92
2022/09/17 05:38:02;;;;;;;14.50;9.40;;;16.50;99.90;;;;;;5015219;28;20448;-91
2022/09/17 05:40:29;;;;;;;15.73;10.57;;;16.40;99.90;;;;;;4996645;28;20840;-92
2022/09/17 05:43:03;;;;;;;13.53;10.10;;;16.50;99.90;;;;;;4996431;28;20433;-92
2022/09/17 05:45:29;;;;;;;10.90;9.40;;;16.50;99.90;;;;;;4996721;28;20440;-92
2022/09/17 05:48:00;;;;;;;12.10;9.00;;;16.40;99.90;;;;;;4997934;28;20466;-92
2022/09/17 05:50:26;;;;;;;12.37;9.90;;;16.40;99.90;;;;;;5001219;28;20812;-92
2022/09/17 05:52:53;;;;;;;13.10;9.70;;;16.40;99.90;;;;;;5002385;28;20480;-92
2022/09/17 05:55:21;;;;;;;15.40;10.10;;;16.40;99.90;;;;;;5000741;28;20443;-92
2022/09/17 05:57:47;;;;;;;12.97;9.77;;;16.40;99.90;;;;;;5018462;28;20424;-93
2022/09/17 06:00:13;;;;;;;12.67;9.57;;;16.50;99.90;;;;;;5001767;28;20531;-96
2022/09/17 06:02:39;;;;;;;9.90;8.50;;;16.40;99.90;;;;;;4998018;28;20508;-90
2022/09/17 06:05:05;;;;;;;11.00;9.40;;;16.40;99.90;;;;;;4998915;28;20488;-93
2022/09/17 06:07:31;;;;;;;12.27;8.70;;;16.40;99.90;;;;;;5002325;28;20191;-93
2022/09/17 06:09:56;;;;;;;10.60;9.00;;;16.40;99.90;;;;;;5016485;28;20428;-91
2022/09/17 06:12:22;;;;;;;14.20;9.27;;;16.30;99.90;;;;;;5005752;28;20210;-92
2022/09/17 06:14:48;;;;;;;12.30;8.70;;;16.30;99.90;;;;;;5001019;28;20246;-92
2022/09/17 06:17:13;;;;;;;11.00;9.30;;;16.30;99.90;;;;;;5011541;28;20242;-92
2022/09/17 06:19:39;;;;;;;10.10;8.60;;;16.30;99.90;;;;;;4988365;28;20187;-92
2022/09/17 06:22:05;;;;;;;11.03;8.30;;;16.30;99.90;;;;;;4981467;28;20184;-91
2022/09/17 06:24:31;;;;;;;10.23;8.07;;;16.30;99.90;;;;;;4997689;28;20202;-93
2022/09/17 06:26:57;;;;;;;10.53;7.90;;;16.20;99.90;;;;;;4978511;28;20187;-92
2022/09/17 06:29:23;;;;;;;11.07;8.57;;;16.30;99.90;;;;;;4979001;28;20433;-91
2022/09/17 06:31:49;;;;;;;9.17;8.17;;;16.30;99.90;;;;;;4995389;28;20781;-93
2022/09/17 06:34:16;;;;;;;10.27;9.07;;;16.40;99.90;;;;;;4995328;28;20200;-91
2022/09/17 06:36:42;;;;;;;10.30;8.37;;;16.40;99.90;;;;;;4978967;28;20472;-93
2022/09/17 06:39:08;;;;;;;12.27;8.37;;;16.50;99.90;;;;;;4996150;28;20515;-92
2022/09/17 06:41:34;;;;;;;9.77;7.77;;;16.50;99.90;;;;;;4979125;28;20203;-92
2022/09/17 06:44:00;;;;;;;11.50;8.40;;;16.60;99.90;;;;;;4978526;28;20783;-92
2022/09/17 06:46:26;;;;;;;9.73;8.37;;;16.60;99.90;;;;;;5014879;28;20207;-91
2022/09/17 06:48:52;;;;;;;9.87;6.97;;;16.60;99.90;;;;;;5019813;28;20447;-93
2022/09/17 06:51:18;;;;;;;9.70;8.50;;;16.60;99.90;;;;;;5024687;28;20417;-93
2022/09/17 06:53:43;;;;;;;8.43;7.17;;;16.60;99.90;;;;;;5017867;28;20206;-90
2022/09/17 06:56:09;;;;;;;10.03;7.27;;;16.70;99.90;;;;;;5018580;28;20505;-91
2022/09/17 06:58:36;;;;;;;10.10;7.67;;;16.70;99.90;;;;;;5004259;28;20257;-91
2022/09/17 07:01:04;;;;;;;8.93;7.20;;;16.70;99.90;;;;;;4969793;28;20557;-90
2022/09/17 07:03:30;;;;;;;8.27;6.50;;;16.80;99.90;;;;;;4981622;28;20414;-92
2022/09/17 07:05:57;;;;;;;7.97;6.60;;;16.80;99.90;;;;;;4966792;28;20821;-89
2022/09/17 07:08:22;;;;;;;9.43;7.13;;;16.90;99.90;;;;;;4979264;28;20815;-93
2022/09/17 07:10:48;;;;;;;9.40;6.00;;;17.00;99.90;;;;;;4970221;28;20489;-89
2022/09/17 07:13:14;;;;;;;7.57;6.17;;;17.10;99.90;;;;;;5004649;28;20465;-89
2022/09/17 07:15:40;;;;;;;7.83;5.67;;;17.20;99.90;;;;;;5002585;28;20228;-90
2022/09/17 07:18:10;;;;;;;8.53;5.60;;;17.30;99.90;;;;;;4979810;28;20500;-90
2022/09/17 07:20:36;;;;;;;6.00;5.10;;;17.30;99.90;;;;;;5005288;28;20204;-90
2022/09/17 07:23:02;;;;;;;8.00;6.60;;;17.40;99.90;;;;;;4999397;28;20428;-93
2022/09/17 07:25:28;;;;;;;7.63;5.70;;;17.40;99.90;;;;;;4991620;28;20437;-92
2022/09/17 07:27:54;;;;;;;7.77;6.33;;;17.40;99.90;;;;;;4996195;28;20239;-92
2022/09/17 07:30:20;;;;;;;8.13;5.83;;;17.40;99.90;;;;;;4978153;28;20267;-93
2022/09/17 07:32:46;;;;;;;6.13;5.00;;;17.40;99.90;;;;;;4975101;28;20469;-92
2022/09/17 07:35:11;;;;;;;7.90;5.87;;;17.40;99.90;;;;;;4985548;28;20220;-95
2022/09/17 07:37:37;;;;;;;6.90;6.10;;;17.40;99.90;;;;;;4987323;28;20455;-91
2022/09/17 07:40:07;;;;;;;7.37;6.40;;;17.50;99.90;;;;;;4981608;28;20267;-93
2022/09/17 07:42:33;;;;;;;6.97;6.07;;;17.50;99.90;;;;;;4981590;28;20442;-90
2022/09/17 07:44:59;;;;;;;7.50;6.70;;;17.50;99.90;;;;;;4980469;28;20453;-92
2022/09/17 07:47:25;;;;;;;7.40;5.87;;;17.50;99.90;;;;;;4992204;28;20480;-92
2022/09/17 07:49:51;;;;;;;6.43;5.70;;;17.50;99.90;;;;;;4996319;28;20213;-94
2022/09/17 07:52:16;;;;;;;6.60;5.90;;;17.60;99.90;;;;;;4990207;28;20215;-93
2022/09/17 07:54:42;;;;;;;6.33;5.73;;;17.70;99.90;;;;;;4992068;28;20213;-92
2022/09/17 07:57:08;;;;;;;6.23;5.60;;;17.90;99.90;;;;;;4991439;28;20189;-90
2022/09/17 07:59:33;;;;;;;6.13;5.37;;;17.90;99.90;;;;;;5005691;28;20206;-91
2022/09/17 08:01:59;;;;;;;5.97;5.40;;;18.00;99.90;;;;;;4988829;28;20190;-90
2022/09/17 08:04:25;;;;;;;9.37;5.97;;;18.00;99.90;;;;;;4999023;28;20226;-95
2022/09/17 08:06:50;;;;;;;7.60;6.03;;;18.00;99.90;;;;;;4988465;28;20197;-91
2022/09/17 08:09:17;;;;;;;8.80;6.80;;;17.90;99.90;;;;;;4984251;28;20213;-91
2022/09/17 08:11:43;;;;;;;7.37;5.50;;;17.90;99.90;;;;;;4981673;28;20192;-93
2022/09/17 08:14:14;;;;;;;5.70;5.07;;;17.80;99.90;;;;;;4990956;28;20469;-90
2022/09/17 08:16:41;;;;;;;6.57;5.97;;;17.90;99.90;;;;;;4960052;28;20423;-92
2022/09/17 08:19:09;;;;;;;6.83;5.83;;;17.90;99.90;;;;;;4996561;28;20543;-90
2022/09/17 08:21:35;;;;;;;6.23;5.60;;;17.90;99.90;;;;;;4995495;28;20580;-92
2022/09/17 08:24:01;;;;;;;6.50;5.90;;;17.80;99.90;;;;;;4983378;28;20459;-91
2022/09/17 08:26:27;;;;;;;6.70;5.63;;;17.90;99.90;;;;;;4996142;28;20931;-90
2022/09/17 08:28:55;;;;;;;6.83;5.67;;;17.90;99.90;;;;;;4978906;28;20191;-92
2022/09/17 08:31:25;;;;;;;6.30;5.50;;;17.90;99.90;;;;;;4995107;28;20199;-95
2022/09/17 08:33:51;;;;;;;8.73;6.13;;;17.80;99.90;;;;;;4987571;28;20513;-93
2022/09/17 08:36:18;;;;;;;7.60;6.13;;;17.80;99.90;;;;;;5015028;28;20415;-93
2022/09/17 08:38:44;;;;;;;6.50;5.40;;;17.80;99.90;;;;;;4988427;28;20238;-92
2022/09/17 08:41:10;;;;;;;5.47;4.97;;;17.90;99.90;;;;;;4988075;28;20456;-94
2022/09/17 08:44:04;;;;;;;6.90;5.00;;;17.80;99.90;;;;;;5006588;28;20212;-94
2022/09/17 08:46:45;;;;;;;7.90;5.10;;;17.80;99.90;;;;;;4984284;28;20190;-94
2022/09/17 08:49:20;;;;;;;5.73;4.43;;;17.80;99.90;;;;;;4986194;28;20483;-95
2022/09/17 08:52:04;;;;;;;4.90;4.13;;;17.80;99.90;;;;;;4962693;28;20437;-90
2022/09/17 08:55:18;;;;;;;7.20;4.70;;;17.70;99.90;;;;;;4973351;28;20466;-92
2022/09/17 08:58:23;;;;;;;6.13;4.50;;;17.70;99.90;;;;;;4949510;28;20427;-87
2022/09/17 09:01:23;;;;;;;5.47;4.97;;;17.60;99.90;;;;;;4992792;28;20528;-89
2022/09/17 09:04:36;;;;;;;5.60;5.07;;;17.60;99.90;;;;;;4993807;28;20437;-95
2022/09/17 09:07:07;;;;;;;8.33;5.70;;;17.50;99.90;;;;;;4963675;28;20451;-90
2022/09/17 09:09:41;;;;;;;10.17;5.83;;;17.50;99.90;;;;;;4978098;28;20585;-88
2022/09/17 09:12:17;;;;;;;7.77;4.60;;;17.50;99.90;;;;;;4974045;28;20474;-88
2022/09/17 09:14:58;;;;;;;5.10;4.60;;;17.50;99.90;;;;;;4994055;28;20452;-89
2022/09/17 09:17:31;;;;;;;7.53;6.27;;;17.50;99.90;;;;;;4967476;28;20444;-96
2022/09/17 09:19:57;;;;;;;6.23;5.30;;;17.50;99.90;;;;;;4972432;28;20460;-92
2022/09/17 09:22:29;;;;;;;5.63;5.13;;;17.40;99.90;;;;;;5001610;28;20426;-92
2022/09/17 09:25:29;;;;;;;6.13;5.50;;;17.50;99.90;;;;;;5000397;28;20197;-95
2022/09/17 09:28:01;;;;;;;6.47;5.77;;;17.50;99.90;;;;;;4979026;28;20450;-96
2022/09/17 09:30:37;;;;;;;7.30;6.60;;;17.60;99.90;;;;;;4993308;28;20454;-92
2022/09/17 09:33:23;;;;;;;6.33;5.70;;;17.60;99.90;;;;;;4974988;28;20488;-93
2022/09/17 09:35:48;;;;;;;7.30;6.60;;;17.60;99.90;;;;;;4983643;28;20552;-93
2022/09/17 09:38:34;;;;;;;6.17;5.57;;;17.60;99.90;;;;;;4975521;28;20473;-94
2022/09/17 09:41:14;;;;;;;7.20;5.93;;;17.60;99.90;;;;;;4990526;28;20270;-88
2022/09/17 09:43:56;;;;;;;6.70;5.90;;;17.50;99.90;;;;;;4964629;28;20467;-92
2022/09/17 09:46:43;;;;;;;6.00;5.10;;;17.50;99.90;;;;;;4975752;28;20521;-91
2022/09/17 09:49:17;;;;;;;8.83;5.77;;;17.50;99.90;;;;;;4960184;28;20442;-92
2022/09/17 09:52:20;;;;;;;6.33;5.27;;;17.60;99.90;;;;;;4970165;28;21071;-89
2022/09/17 09:55:16;;;;;;;7.70;6.27;;;17.60;99.90;;;;;;4972244;28;20458;-91
2022/09/17 09:57:51;;;;;;;6.90;5.83;;;17.70;99.90;;;;;;4981558;28;20439;-89
2022/09/17 10:00:34;;;;;;;7.20;6.10;;;17.70;99.90;;;;;;4976617;28;20505;-91
2022/09/17 10:03:15;;;;;;;8.13;6.43;;;17.80;99.90;;;;;;4980712;28;20436;-89
2022/09/17 10:05:52;;;;;;;6.67;5.80;;;17.80;99.90;;;;;;4995165;28;20441;-89
2022/09/17 10:08:18;;;;;;;7.07;5.87;;;17.80;99.90;;;;;;4974338;28;20439;-92
2022/09/17 10:11:24;;;;;;;7.73;6.67;;;17.90;99.90;;;;;;4979266;28;20549;-91
2022/09/17 10:13:50;;;;;;;6.87;5.40;;;17.90;99.90;;;;;;4946757;29;20535;-91
2022/09/17 10:16:17;;;;;;;8.77;6.53;;;17.90;99.90;;;;;;4940348;29;20460;-92
2022/09/17 10:18:46;;;;;;;7.50;6.20;;;18.00;99.90;;;;;;4966455;28;20447;-89
2022/09/17 10:21:21;;;;;;;6.50;5.90;;;18.10;99.90;;;;;;4978917;28;20451;-89
2022/09/17 10:23:48;;;;;;;8.07;6.30;;;18.10;99.90;;;;;;5000196;28;20431;-94
2022/09/17 10:26:28;;;;;;;9.07;6.80;;;18.10;99.90;;;;;;4987282;28;20430;-89
2022/09/17 10:29:05;;;;;;;8.30;5.80;;;18.20;99.90;;;;;;4981602;28;20461;-91
2022/09/17 10:31:46;;;;;;;7.00;6.30;;;18.20;99.90;;;;;;4998016;28;20449;-85
2022/09/17 10:34:25;;;;;;;7.53;5.50;;;18.30;99.90;;;;;;4988308;28;20510;-84
2022/09/17 10:36:52;;;;;;;7.77;6.37;;;18.40;99.90;;;;;;4978821;28;20798;-90
2022/09/17 10:39:25;;;;;;;7.20;6.00;;;18.40;99.90;;;;;;4990252;28;20477;-92
2022/09/17 10:41:59;;;;;;;7.43;6.20;;;18.50;99.90;;;;;;4987460;28;20446;-87
2022/09/17 10:44:27;;;;;;;8.80;6.30;;;18.50;99.90;;;;;;4998186;28;20453;-91
2022/09/17 10:46:54;;;;;;;10.13;6.83;;;18.50;99.90;;;;;;4984915;28;20445;-89
2022/09/17 10:49:38;;;;;;;7.20;6.13;;;18.60;99.90;;;;;;4983803;28;20433;-93
2022/09/17 10:52:28;;;;;;;7.47;6.30;;;18.60;99.90;;;;;;4989314;28;20479;-91
2022/09/17 10:55:15;;;;;;;8.27;6.80;;;18.60;99.90;;;;;;4982437;28;20464;-90
2022/09/17 10:58:06;;;;;;;8.20;6.83;;;18.70;99.90;;;;;;4996999;28;20555;-92
2022/09/17 11:00:54;;;;;;;8.07;6.80;;;18.70;99.90;;;;;;4999850;28;20493;-95
2022/09/17 11:03:55;;;;;;;11.60;7.33;;;18.70;99.90;;;;;;4984778;28;20423;-93
2022/09/17 11:06:49;;;;;;;7.03;5.90;;;18.70;99.90;;;;;;4989227;28;20434;-90
2022/09/17 11:09:27;;;;;;;8.43;6.70;;;18.70;99.90;;;;;;4987617;28;20442;-91
2022/09/17 11:12:13;;;;;;;10.60;6.63;;;18.70;99.90;;;;;;5004995;28;20543;-94
2022/09/17 11:14:46;;;;;;;7.70;6.43;;;18.70;99.90;;;;;;5007288;28;20539;-90
2022/09/17 11:17:28;;;;;;;8.90;6.40;;;18.60;99.90;;;;;;4984029;28;20785;-92
2022/09/17 11:20:31;;;;;;;7.30;5.97;;;18.60;99.90;;;;;;4988584;28;20427;-88
2022/09/17 11:23:20;;;;;;;7.23;6.50;;;18.60;99.90;;;;;;4963234;28;20458;-89
2022/09/17 11:26:15;;;;;;;7.30;6.60;;;18.60;99.90;;;;;;4987333;28;20452;-88
2022/09/17 11:29:13;;;;;;;8.60;6.67;;;18.60;99.90;;;;;;4986079;28;20455;-92
2022/09/17 11:31:58;;;;;;;7.60;6.80;;;18.50;99.90;;;;;;4932126;28;20914;-91
2022/09/17 11:34:36;;;;;;;7.37;6.60;;;18.50;99.90;;;;;;4987152;28;20487;-95
2022/09/17 11:37:11;;;;;;;8.03;5.90;;;18.60;99.90;;;;;;4996556;28;20469;-90
2022/09/17 11:39:59;;;;;;;7.67;6.90;;;18.60;99.90;;;;;;4995094;28;20470;-93
2022/09/17 11:42:31;;;;;;;7.77;6.07;;;18.60;99.90;;;;;;4998239;28;20443;-93
2022/09/17 11:45:10;;;;;;;9.33;6.40;;;18.50;99.90;;;;;;4979386;28;20448;-91
2022/09/17 11:48:03;;;;;;;8.43;6.77;;;18.50;99.90;;;;;;4998998;28;20462;-94
2022/09/17 11:50:35;;;;;;;8.20;6.70;;;18.50;99.90;;;;;;4976950;28;20455;-90
2022/09/17 11:53:14;;;;;;;7.73;6.93;;;18.50;99.90;;;;;;5006842;28;20565;-92
2022/09/17 11:55:49;;;;;;;9.67;7.73;;;18.50;99.90;;;;;;4987684;28;20564;-87
2022/09/17 11:58:19;;;;;;;11.53;6.10;;;18.50;99.90;;;;;;4981491;28;20420;-93
2022/09/17 12:00:52;;;;;;;7.80;6.77;;;18.60;99.90;;;;;;4981280;28;20466;-92
2022/09/17 12:03:27;;;;;;;8.40;6.90;;;18.60;99.90;;;;;;4980354;28;20482;-92
2022/09/17 12:06:02;;;;;;;7.43;5.83;;;18.70;99.90;;;;;;4981313;28;20475;-92
2022/09/17 12:08:40;;;;;;;8.17;5.90;;;18.80;99.90;;;;;;4959438;28;20409;-89
2022/09/17 12:11:13;;;;;;;12.33;7.77;;;18.80;99.90;;;;;;4976029;28;21038;-89
2022/09/17 12:14:25;;;;;;;10.57;6.70;;;18.80;99.90;;;;;;4994428;28;20471;-92
2022/09/17 12:16:59;;;;;;;7.67;6.23;;;18.90;99.90;;;;;;4951653;28;20471;-90
2022/09/17 12:19:55;;;;;;;9.27;5.60;;;18.90;99.90;;;;;;4985669;28;20439;-92
2022/09/17 12:22:29;;;;;;;8.13;5.83;;;19.00;99.90;;;;;;4985306;28;20535;-89
2022/09/17 12:24:55;;;;;;;10.20;5.83;;;19.00;99.90;;;;;;4985385;28;20483;-93
2022/09/17 12:27:51;;;;;;;6.70;5.53;;;19.10;99.90;;;;;;4993052;28;20449;-92
2022/09/17 12:30:33;;;;;;;7.20;5.60;;;19.10;99.90;;;;;;4997480;28;20452;-93
2022/09/17 12:33:07;;;;;;;5.67;5.10;;;19.10;99.90;;;;;;4997705;28;20526;-89
2022/09/17 12:36:00;;;;;;;8.77;6.07;;;19.10;99.90;;;;;;4985734;28;20440;-90
2022/09/17 12:39:07;;;;;;;7.73;5.30;;;19.00;99.90;;;;;;4978664;28;20483;-88
2022/09/17 12:42:04;;;;;;;5.63;4.70;;;18.90;99.90;;;;;;4973623;28;20435;-90
2022/09/17 12:45:20;;;;;;;4.57;4.13;;;18.90;99.90;;;;;;4978906;28;20498;-88
2022/09/17 12:47:54;;;;;;;6.77;4.37;;;18.90;99.90;;;;;;4936527;29;20443;-91
2022/09/17 12:50:26;;;;;;;5.83;5.17;;;18.80;99.90;;;;;;4935351;29;20797;-90
2022/09/17 12:53:26;;;;;;;7.63;4.67;;;18.80;99.90;;;;;;4964032;28;20891;-92
2022/09/17 12:56:08;;;;;;;4.80;4.40;;;18.70;99.90;;;;;;4968315;28;20591;-89
2022/09/17 12:58:46;;;;;;;6.67;6.07;;;18.70;99.90;;;;;;4975877;28;20428;-91
2022/09/17 13:01:54;;;;;;;9.57;6.53;;;18.60;99.90;;;;;;4991870;28;20437;-91
2022/09/17 13:04:39;;;;;;;6.57;5.17;;;18.60;99.90;;;;;;4945888;28;20800;-91
2022/09/17 13:07:33;;;;;;;7.07;5.73;;;18.50;99.90;;;;;;4996156;28;20481;-93
2022/09/17 13:10:24;;;;;;;5.00;4.37;;;18.50;99.90;;;;;;4996111;28;20456;-94
2022/09/17 13:12:56;;;;;;;6.00;5.20;;;18.40;99.90;;;;;;4978619;28;20835;-90
2022/09/17 13:15:49;;;;;;;6.90;5.17;;;18.30;99.90;;;;;;4996185;28;20499;-91